Impacts METAR Board
IDs:

KRWV - Caldwell Muni, TX, US

Updated at: 0000 UTC 19 Oct 2019
Potential Impact None Slight Moderate High
Time 18/12Z 18/13Z 18/14Z 18/15Z 18/16Z 18/17Z 18/18Z 18/19Z 18/20Z 18/21Z 18/22Z 18/23Z 19/00Z
Temp 66 71 75 78 81 82 83 81 74
Dewpt 50 47 42 39 38 40 39 42 44
Altim 29.90 29.88 29.85 29.81 29.77 29.76 29.74 29.74 29.74
VIS 10 10 10 10 10 10 10 10 10
CIG -- -- -- -- -- -- -- -- --
Cover------------------
FltCatVFRVFRVFRVFRVFRVFRVFRVFRVFR
WX------------------
WDir020190909015017014090
WSpd 0 3 5 7 6 6 5 7 3
WGst -- -- -- -- -- -- -- -- --
Raw hourly METARs




KRWV 181555Z AUTO 00000KT 10SM 19/10 A2990 RMK AO2 T01900099
KRWV 181655Z AUTO 02003KT 10SM 22/09 A2988 RMK AO2 T02170086
KRWV 181755Z AUTO 19005KT 10SM 24/05 A2985 RMK AO2 T02400055 10243 20172
KRWV 181855Z AUTO 09007KT 10SM 26/04 A2981 RMK AO2 T02570040
KRWV 181955Z AUTO 09006KT 10SM 27/03 A2977 RMK AO2 T02710032
KRWV 182055Z AUTO 15006KT 10SM 28/05 A2976 RMK AO2 T02770046
KRWV 182155Z AUTO 17005KT 10SM 28/04 A2974 RMK AO2 T02820037
KRWV 182255Z AUTO 14007KT 10SM 27/06 A2974 RMK AO2 T02740055
KRWV 182355Z AUTO 09003KT 10SM 23/06 A2974 RMK AO2 T02340064 10289 20230 402890172